Portada
METAR-TAF:

METAR-TAF

Aeroports :

Northeast Philadelphia Airport

Filadèlfia, Pennsilvània, Estats Units d'Amèrica

latitud: 40-04-44N, longitud: 075-00-49W, altitud: 36 m

Observació

L'informe es va fer fa 12 minuts, a les 00:54 UTC
Vent 11 kt del Nord/Nord-Oest
Temperatura 1°C
Humitat 47%
Pressió 1014 hPa
Visibilitat: 16.1 km
Cel clar

METAR: KPNE 050054Z 33011KT 10SM CLR 01/M09 A2995 RMK AO2 SLP141 T00111089

Hora: 20:06 (01:06 UTC)

Pronòstic

L'informe es va fer fa 1 hora i 43 minuts, a les 23:23 UTC
Pronòstic vàlid del 05 a les 00 UTC al 05 a les 24 UTC
Vent 14 kt del Nord-Oest amb ràfegues de 22 kt
Visibilitat: 10 km
Escasses núvols a una alçada de 7000 ft
A partir de les 05 a les 1400 UTC
Vent 16 kt del Oest/Nord-Oest amb ràfegues de 26 kt
Visibilitat: 10 km
Cel clar
A partir de les 05 a les 2300 UTC
Vent 9 kt del Oest/Nord-Oest
Visibilitat: 10 km
Cel clar

TAF: KPNE 042323Z 0500/0524 32014G22KT P6SM FEW070 FM051400 30016G26KT P6SM SKC FM052300 29009KT P6SM SKC

Observacions i pronòstics meteorològics de més de 4000 aeroports (METAR i TAF).

Les estacions disponibles són els punts grocs i vermells al mapa.

Posi el ratolí al punt desitjat per veure el nom de l'estació.

Feu clic per veure les observacions i els pronòstics meteorològics.

Per canviar el mapa: feu clic els botons verds amb una creu de color negre per apropar; al botó verd amb un guió per allunyar la imatge; o en les fletxes verdes per a mapes adjacents.


METAR-TAF: